sensor_id;sensor_type;location;lat;lon;timestamp;temperature;humidity
21417;DHT22;10869;52.238;10.716;2024-02-26T00:00:07;4.30;99.90
21417;DHT22;10869;52.238;10.716;2024-02-26T00:02:38;4.40;99.90
21417;DHT22;10869;52.238;10.716;2024-02-26T00:08:27;4.40;99.90
21417;DHT22;10869;52.238;10.716;2024-02-26T00:10:52;4.50;99.90
21417;DHT22;10869;52.238;10.716;2024-02-26T00:13:18;4.50;99.90
21417;DHT22;10869;52.238;10.716;2024-02-26T00:15:45;4.50;99.90
21417;DHT22;10869;52.238;10.716;2024-02-26T00:18:11;4.50;99.90
21417;DHT22;10869;52.238;10.716;2024-02-26T00:20:37;4.50;99.90
21417;DHT22;10869;52.238;10.716;2024-02-26T00:23:04;4.60;99.90
21417;DHT22;10869;52.238;10.716;2024-02-26T00:25:30;4.50;99.90
21417;DHT22;10869;52.238;10.716;2024-02-26T00:27:56;4.50;99.90
21417;DHT22;10869;52.238;10.716;2024-02-26T00:30:21;4.50;99.90
21417;DHT22;10869;52.238;10.716;2024-02-26T00:32:48;4.50;99.90
21417;DHT22;10869;52.238;10.716;2024-02-26T00:35:14;4.60;99.90
21417;DHT22;10869;52.238;10.716;2024-02-26T00:37:41;4.60;99.90
21417;DHT22;10869;52.238;10.716;2024-02-26T00:40:08;4.70;99.90
21417;DHT22;10869;52.238;10.716;2024-02-26T00:42:34;4.70;99.90
21417;DHT22;10869;52.238;10.716;2024-02-26T00:45:00;4.70;99.90
21417;DHT22;10869;52.238;10.716;2024-02-26T00:47:26;4.70;99.90
21417;DHT22;10869;52.238;10.716;2024-02-26T00:49:51;4.70;99.90
21417;DHT22;10869;52.238;10.716;2024-02-26T00:52:17;4.70;99.90
21417;DHT22;10869;52.238;10.716;2024-02-26T00:54:43;4.70;99.90
21417;DHT22;10869;52.238;10.716;2024-02-26T00:57:08;4.70;99.90
21417;DHT22;10869;52.238;10.716;2024-02-26T00:59:34;4.70;99.90
21417;DHT22;10869;52.238;10.716;2024-02-26T01:02:00;4.70;99.90
21417;DHT22;10869;52.238;10.716;2024-02-26T01:04:27;4.80;99.90
21417;DHT22;10869;52.238;10.716;2024-02-26T01:06:53;4.80;99.90
21417;DHT22;10869;52.238;10.716;2024-02-26T01:09:19;4.80;99.90
21417;DHT22;10869;52.238;10.716;2024-02-26T01:11:44;4.70;99.90
21417;DHT22;10869;52.238;10.716;2024-02-26T01:14:10;4.70;99.90
21417;DHT22;10869;52.238;10.716;2024-02-26T01:16:36;4.60;99.90
21417;DHT22;10869;52.238;10.716;2024-02-26T01:19:02;4.50;99.90
21417;DHT22;10869;52.238;10.716;2024-02-26T01:21:28;4.50;99.90
21417;DHT22;10869;52.238;10.716;2024-02-26T01:23:55;4.50;99.90
21417;DHT22;10869;52.238;10.716;2024-02-26T01:26:21;4.50;99.90
21417;DHT22;10869;52.238;10.716;2024-02-26T01:28:47;4.50;99.90
21417;DHT22;10869;52.238;10.716;2024-02-26T01:31:13;4.50;99.90
21417;DHT22;10869;52.238;10.716;2024-02-26T01:33:39;4.50;99.90
21417;DHT22;10869;52.238;10.716;2024-02-26T01:36:05;4.50;99.90
21417;DHT22;10869;52.238;10.716;2024-02-26T01:38:30;4.50;99.90
21417;DHT22;10869;52.238;10.716;2024-02-26T01:40:56;4.50;99.90
21417;DHT22;10869;52.238;10.716;2024-02-26T01:43:22;4.50;99.90
21417;DHT22;10869;52.238;10.716;2024-02-26T01:45:48;4.50;99.90
21417;DHT22;10869;52.238;10.716;2024-02-26T01:48:14;4.40;99.90
21417;DHT22;10869;52.238;10.716;2024-02-26T01:50:40;4.40;99.90
21417;DHT22;10869;52.238;10.716;2024-02-26T01:53:06;4.40;99.90
21417;DHT22;10869;52.238;10.716;2024-02-26T01:55:32;4.50;99.90
21417;DHT22;10869;52.238;10.716;2024-02-26T01:57:59;4.40;99.90
21417;DHT22;10869;52.238;10.716;2024-02-26T02:00:25;4.30;99.90
21417;DHT22;10869;52.238;10.716;2024-02-26T02:02:51;4.20;99.90
21417;DHT22;10869;52.238;10.716;2024-02-26T02:05:19;4.20;99.90
21417;DHT22;10869;52.238;10.716;2024-02-26T02:07:46;4.20;99.90
21417;DHT22;10869;52.238;10.716;2024-02-26T02:10:14;4.20;99.90
21417;DHT22;10869;52.238;10.716;2024-02-26T02:12:40;4.10;99.90
21417;DHT22;10869;52.238;10.716;2024-02-26T02:15:06;4.00;99.90
21417;DHT22;10869;52.238;10.716;2024-02-26T02:17:32;4.00;99.90
21417;DHT22;10869;52.238;10.716;2024-02-26T02:19:58;3.90;99.90
21417;DHT22;10869;52.238;10.716;2024-02-26T02:22:24;3.80;99.90
21417;DHT22;10869;52.238;10.716;2024-02-26T02:24:52;3.60;99.90
21417;DHT22;10869;52.238;10.716;2024-02-26T02:27:19;3.50;99.90
21417;DHT22;10869;52.238;10.716;2024-02-26T02:29:46;3.40;99.90
21417;DHT22;10869;52.238;10.716;2024-02-26T02:32:12;3.30;99.90
21417;DHT22;10869;52.238;10.716;2024-02-26T02:34:39;3.20;99.90
21417;DHT22;10869;52.238;10.716;2024-02-26T02:37:04;3.00;99.90
21417;DHT22;10869;52.238;10.716;2024-02-26T02:39:30;2.90;99.90
21417;DHT22;10869;52.238;10.716;2024-02-26T02:41:56;2.80;99.90
21417;DHT22;10869;52.238;10.716;2024-02-26T02:44:22;2.60;99.90
21417;DHT22;10869;52.238;10.716;2024-02-26T02:46:47;2.40;99.90
21417;DHT22;10869;52.238;10.716;2024-02-26T02:49:13;2.40;99.90
21417;DHT22;10869;52.238;10.716;2024-02-26T02:51:39;2.30;99.90
21417;DHT22;10869;52.238;10.716;2024-02-26T02:54:08;2.20;99.90
21417;DHT22;10869;52.238;10.716;2024-02-26T02:56:34;2.10;99.90
21417;DHT22;10869;52.238;10.716;2024-02-26T02:59:01;2.00;99.90
21417;DHT22;10869;52.238;10.716;2024-02-26T03:01:27;1.90;99.90
21417;DHT22;10869;52.238;10.716;2024-02-26T03:03:53;1.90;99.90
21417;DHT22;10869;52.238;10.716;2024-02-26T03:06:19;1.80;99.90
21417;DHT22;10869;52.238;10.716;2024-02-26T03:08:46;1.80;99.90
21417;DHT22;10869;52.238;10.716;2024-02-26T03:11:15;1.80;99.90
21417;DHT22;10869;52.238;10.716;2024-02-26T03:13:41;1.80;99.90
21417;DHT22;10869;52.238;10.716;2024-02-26T03:16:07;1.70;99.90
21417;DHT22;10869;52.238;10.716;2024-02-26T03:18:33;1.80;99.90
21417;DHT22;10869;52.238;10.716;2024-02-26T03:20:59;1.70;99.90
21417;DHT22;10869;52.238;10.716;2024-02-26T03:23:25;1.70;99.90
21417;DHT22;10869;52.238;10.716;2024-02-26T03:25:51;1.70;99.90
21417;DHT22;10869;52.238;10.716;2024-02-26T03:28:17;1.60;99.90
21417;DHT22;10869;52.238;10.716;2024-02-26T03:30:43;1.60;99.90
21417;DHT22;10869;52.238;10.716;2024-02-26T03:33:12;1.60;99.90
21417;DHT22;10869;52.238;10.716;2024-02-26T03:35:38;1.60;99.90
21417;DHT22;10869;52.238;10.716;2024-02-26T03:38:04;1.50;99.90
21417;DHT22;10869;52.238;10.716;2024-02-26T03:40:29;1.50;99.90
21417;DHT22;10869;52.238;10.716;2024-02-26T03:42:55;1.50;99.90
21417;DHT22;10869;52.238;10.716;2024-02-26T03:45:22;1.50;99.90
21417;DHT22;10869;52.238;10.716;2024-02-26T03:47:48;1.40;99.90
21417;DHT22;10869;52.238;10.716;2024-02-26T03:53:36;1.40;99.90
21417;DHT22;10869;52.238;10.716;2024-02-26T03:56:06;1.30;99.90
21417;DHT22;10869;52.238;10.716;2024-02-26T03:58:32;1.20;99.90
21417;DHT22;10869;52.238;10.716;2024-02-26T04:00:59;1.20;99.90
21417;DHT22;10869;52.238;10.716;2024-02-26T04:03:25;1.20;99.90
21417;DHT22;10869;52.238;10.716;2024-02-26T04:05:51;1.10;99.90
21417;DHT22;10869;52.238;10.716;2024-02-26T04:08:17;1.10;99.90
21417;DHT22;10869;52.238;10.716;2024-02-26T04:10:42;1.20;99.90
21417;DHT22;10869;52.238;10.716;2024-02-26T04:13:08;1.40;99.90
21417;DHT22;10869;52.238;10.716;2024-02-26T04:15:34;1.70;99.90
21417;DHT22;10869;52.238;10.716;2024-02-26T04:18:00;2.20;99.90
21417;DHT22;10869;52.238;10.716;2024-02-26T04:20:26;2.80;99.90
21417;DHT22;10869;52.238;10.716;2024-02-26T04:22:51;3.10;99.90
21417;DHT22;10869;52.238;10.716;2024-02-26T04:25:18;3.40;99.90
21417;DHT22;10869;52.238;10.716;2024-02-26T04:27:44;3.60;99.90
21417;DHT22;10869;52.238;10.716;2024-02-26T04:30:10;3.70;99.90
21417;DHT22;10869;52.238;10.716;2024-02-26T04:32:36;3.90;99.90
21417;DHT22;10869;52.238;10.716;2024-02-26T04:35:05;4.00;99.90
21417;DHT22;10869;52.238;10.716;2024-02-26T04:37:31;4.10;99.90
21417;DHT22;10869;52.238;10.716;2024-02-26T04:40:00;4.10;99.90
21417;DHT22;10869;52.238;10.716;2024-02-26T04:42:27;4.20;99.90
21417;DHT22;10869;52.238;10.716;2024-02-26T04:44:53;4.30;99.90
21417;DHT22;10869;52.238;10.716;2024-02-26T04:47:19;4.30;99.90
21417;DHT22;10869;52.238;10.716;2024-02-26T04:49:48;4.40;99.90
21417;DHT22;10869;52.238;10.716;2024-02-26T04:52:14;4.40;99.90
21417;DHT22;10869;52.238;10.716;2024-02-26T04:54:40;4.50;99.90
21417;DHT22;10869;52.238;10.716;2024-02-26T04:57:06;4.50;99.90
21417;DHT22;10869;52.238;10.716;2024-02-26T04:59:31;4.60;99.90
21417;DHT22;10869;52.238;10.716;2024-02-26T05:02:01;4.60;99.90
21417;DHT22;10869;52.238;10.716;2024-02-26T05:04:30;4.50;99.90
21417;DHT22;10869;52.238;10.716;2024-02-26T05:06:56;4.60;99.90
21417;DHT22;10869;52.238;10.716;2024-02-26T05:09:22;4.60;99.90
21417;DHT22;10869;52.238;10.716;2024-02-26T05:11:48;4.60;99.90
21417;DHT22;10869;52.238;10.716;2024-02-26T05:14:13;4.60;99.90
21417;DHT22;10869;52.238;10.716;2024-02-26T05:16:39;4.60;99.90
21417;DHT22;10869;52.238;10.716;2024-02-26T05:19:05;4.60;99.90
21417;DHT22;10869;52.238;10.716;2024-02-26T05:21:31;4.60;99.90
21417;DHT22;10869;52.238;10.716;2024-02-26T05:23:57;4.60;99.90
21417;DHT22;10869;52.238;10.716;2024-02-26T05:26:23;4.60;99.90
21417;DHT22;10869;52.238;10.716;2024-02-26T05:28:49;4.60;99.90
21417;DHT22;10869;52.238;10.716;2024-02-26T05:31:15;4.60;99.90
21417;DHT22;10869;52.238;10.716;2024-02-26T05:33:41;4.60;99.90
21417;DHT22;10869;52.238;10.716;2024-02-26T05:36:07;4.60;99.90
21417;DHT22;10869;52.238;10.716;2024-02-26T05:38:33;4.60;99.90
21417;DHT22;10869;52.238;10.716;2024-02-26T05:40:59;4.70;99.90
21417;DHT22;10869;52.238;10.716;2024-02-26T05:43:28;4.70;99.90
21417;DHT22;10869;52.238;10.716;2024-02-26T05:45:54;4.70;99.90
21417;DHT22;10869;52.238;10.716;2024-02-26T05:48:21;4.70;99.90
21417;DHT22;10869;52.238;10.716;2024-02-26T05:50:47;4.70;99.90
21417;DHT22;10869;52.238;10.716;2024-02-26T05:53:13;4.70;99.90
21417;DHT22;10869;52.238;10.716;2024-02-26T05:55:39;4.70;99.90
21417;DHT22;10869;52.238;10.716;2024-02-26T05:58:05;4.70;99.90
21417;DHT22;10869;52.238;10.716;2024-02-26T06:00:31;4.70;99.90
21417;DHT22;10869;52.238;10.716;2024-02-26T06:02:56;4.70;99.90
21417;DHT22;10869;52.238;10.716;2024-02-26T06:05:22;4.70;99.90
21417;DHT22;10869;52.238;10.716;2024-02-26T06:07:48;4.70;99.90
21417;DHT22;10869;52.238;10.716;2024-02-26T06:10:14;4.70;99.90
21417;DHT22;10869;52.238;10.716;2024-02-26T06:12:39;4.70;99.90
21417;DHT22;10869;52.238;10.716;2024-02-26T06:15:06;4.70;99.90
21417;DHT22;10869;52.238;10.716;2024-02-26T06:17:32;4.70;99.90
21417;DHT22;10869;52.238;10.716;2024-02-26T06:19:57;4.70;99.90
21417;DHT22;10869;52.238;10.716;2024-02-26T06:25:48;4.70;99.90
21417;DHT22;10869;52.238;10.716;2024-02-26T06:28:14;4.70;99.90
21417;DHT22;10869;52.238;10.716;2024-02-26T06:30:40;4.70;99.90
21417;DHT22;10869;52.238;10.716;2024-02-26T06:33:06;4.70;99.90
21417;DHT22;10869;52.238;10.716;2024-02-26T06:35:32;4.80;99.90
21417;DHT22;10869;52.238;10.716;2024-02-26T06:37:57;4.80;99.90
21417;DHT22;10869;52.238;10.716;2024-02-26T06:45:34;4.80;99.90
21417;DHT22;10869;52.238;10.716;2024-02-26T06:48:05;4.90;99.90
21417;DHT22;10869;52.238;10.716;2024-02-26T06:53:06;5.00;99.90
21417;DHT22;10869;52.238;10.716;2024-02-26T06:55:32;5.00;99.90
21417;DHT22;10869;52.238;10.716;2024-02-26T06:57:58;5.00;99.90
21417;DHT22;10869;52.238;10.716;2024-02-26T07:00:24;5.10;99.90
21417;DHT22;10869;52.238;10.716;2024-02-26T07:02:50;5.10;99.90
21417;DHT22;10869;52.238;10.716;2024-02-26T07:05:16;5.20;99.90
21417;DHT22;10869;52.238;10.716;2024-02-26T07:07:41;5.20;99.90
21417;DHT22;10869;52.238;10.716;2024-02-26T07:10:08;5.30;99.90
21417;DHT22;10869;52.238;10.716;2024-02-26T07:12:34;5.30;99.90
21417;DHT22;10869;52.238;10.716;2024-02-26T07:15:00;5.30;99.90
21417;DHT22;10869;52.238;10.716;2024-02-26T07:17:26;5.30;99.90
21417;DHT22;10869;52.238;10.716;2024-02-26T07:19:52;5.40;99.90
21417;DHT22;10869;52.238;10.716;2024-02-26T07:22:18;5.40;99.90
21417;DHT22;10869;52.238;10.716;2024-02-26T07:24:44;5.50;99.90
21417;DHT22;10869;52.238;10.716;2024-02-26T07:30:32;5.60;99.90
21417;DHT22;10869;52.238;10.716;2024-02-26T07:32:58;5.60;99.90
21417;DHT22;10869;52.238;10.716;2024-02-26T07:38:45;5.70;99.90
21417;DHT22;10869;52.238;10.716;2024-02-26T07:44:37;5.90;99.90
21417;DHT22;10869;52.238;10.716;2024-02-26T07:50:37;6.00;99.90
21417;DHT22;10869;52.238;10.716;2024-02-26T07:53:05;6.00;99.90
21417;DHT22;10869;52.238;10.716;2024-02-26T07:55:34;6.10;99.90
21417;DHT22;10869;52.238;10.716;2024-02-26T07:58:02;6.10;99.90
21417;DHT22;10869;52.238;10.716;2024-02-26T08:00:28;6.20;99.90
21417;DHT22;10869;52.238;10.716;2024-02-26T08:13:54;6.20;99.90
21417;DHT22;10869;52.238;10.716;2024-02-26T08:19:02;6.20;99.90
21417;DHT22;10869;52.238;10.716;2024-02-26T08:24:50;6.20;99.90
21417;DHT22;10869;52.238;10.716;2024-02-26T08:27:16;6.20;99.90
21417;DHT22;10869;52.238;10.716;2024-02-26T08:33:04;6.10;99.90
21417;DHT22;10869;52.238;10.716;2024-02-26T08:35:32;6.00;99.90
21417;DHT22;10869;52.238;10.716;2024-02-26T08:37:57;5.90;99.90
21417;DHT22;10869;52.238;10.716;2024-02-26T08:46:03;6.10;99.90
21417;DHT22;10869;52.238;10.716;2024-02-26T08:56:15;6.50;99.90
21417;DHT22;10869;52.238;10.716;2024-02-26T09:09:33;6.80;99.90
21417;DHT22;10869;52.238;10.716;2024-02-26T09:21:29;6.80;99.90
21417;DHT22;10869;52.238;10.716;2024-02-26T09:27:02;6.80;99.90
21417;DHT22;10869;52.238;10.716;2024-02-26T09:29:31;6.90;99.90
21417;DHT22;10869;52.238;10.716;2024-02-26T09:32:04;6.90;99.90
21417;DHT22;10869;52.238;10.716;2024-02-26T09:39:50;6.90;99.90
21417;DHT22;10869;52.238;10.716;2024-02-26T09:52:38;7.10;99.90
21417;DHT22;10869;52.238;10.716;2024-02-26T09:55:05;7.00;99.90
21417;DHT22;10869;52.238;10.716;2024-02-26T09:57:32;7.10;99.90
21417;DHT22;10869;52.238;10.716;2024-02-26T09:59:59;7.00;99.90
21417;DHT22;10869;52.238;10.716;2024-02-26T10:05:59;7.10;99.90
21417;DHT22;10869;52.238;10.716;2024-02-26T10:11:50;7.00;99.90
21417;DHT22;10869;52.238;10.716;2024-02-26T10:14:16;7.00;99.90
21417;DHT22;10869;52.238;10.716;2024-02-26T10:20:15;7.00;99.90
21417;DHT22;10869;52.238;10.716;2024-02-26T10:39:47;6.70;99.90
21417;DHT22;10869;52.238;10.716;2024-02-26T10:45:39;6.80;99.90
21417;DHT22;10869;52.238;10.716;2024-02-26T10:48:14;6.80;99.90
21417;DHT22;10869;52.238;10.716;2024-02-26T10:50:47;6.80;99.90
21417;DHT22;10869;52.238;10.716;2024-02-26T10:56:02;6.90;99.90
21417;DHT22;10869;52.238;10.716;2024-02-26T10:58:32;6.80;99.90
21417;DHT22;10869;52.238;10.716;2024-02-26T11:00:59;6.90;99.90
21417;DHT22;10869;52.238;10.716;2024-02-26T11:03:25;6.90;99.90
21417;DHT22;10869;52.238;10.716;2024-02-26T11:05:52;7.00;99.90
21417;DHT22;10869;52.238;10.716;2024-02-26T11:11:40;7.10;99.90
21417;DHT22;10869;52.238;10.716;2024-02-26T11:17:31;7.40;99.90
21417;DHT22;10869;52.238;10.716;2024-02-26T12:54:30;7.40;99.90
21417;DHT22;10869;52.238;10.716;2024-02-26T12:57:08;8.20;99.90
21417;DHT22;10869;52.238;10.716;2024-02-26T12:59:38;8.20;99.90
21417;DHT22;10869;52.238;10.716;2024-02-26T13:02:27;8.10;99.90
21417;DHT22;10869;52.238;10.716;2024-02-26T13:08:20;7.80;99.90
21417;DHT22;10869;52.238;10.716;2024-02-26T13:14:08;7.70;99.90
21417;DHT22;10869;52.238;10.716;2024-02-26T13:20:08;7.60;99.90
21417;DHT22;10869;52.238;10.716;2024-02-26T13:22:38;7.60;99.90
21417;DHT22;10869;52.238;10.716;2024-02-26T13:28:26;7.60;99.90
21417;DHT22;10869;52.238;10.716;2024-02-26T13:30:57;7.60;99.90
21417;DHT22;10869;52.238;10.716;2024-02-26T13:33:28;7.60;99.90
21417;DHT22;10869;52.238;10.716;2024-02-26T13:35:58;7.60;99.90
21417;DHT22;10869;52.238;10.716;2024-02-26T13:38:24;7.60;99.90
21417;DHT22;10869;52.238;10.716;2024-02-26T13:40:51;7.60;99.90
21417;DHT22;10869;52.238;10.716;2024-02-26T13:43:17;7.60;99.90
21417;DHT22;10869;52.238;10.716;2024-02-26T13:45:43;7.60;99.90
21417;DHT22;10869;52.238;10.716;2024-02-26T13:48:10;7.60;99.90
21417;DHT22;10869;52.238;10.716;2024-02-26T13:50:37;7.60;99.90
21417;DHT22;10869;52.238;10.716;2024-02-26T13:53:03;7.50;99.90
21417;DHT22;10869;52.238;10.716;2024-02-26T13:55:32;7.50;99.90
21417;DHT22;10869;52.238;10.716;2024-02-26T13:57:59;7.40;99.90
21417;DHT22;10869;52.238;10.716;2024-02-26T14:00:27;7.50;99.90
21417;DHT22;10869;52.238;10.716;2024-02-26T14:06:16;7.40;99.90
21417;DHT22;10869;52.238;10.716;2024-02-26T14:08:42;7.50;99.90
21417;DHT22;10869;52.238;10.716;2024-02-26T14:11:08;7.40;99.90
21417;DHT22;10869;52.238;10.716;2024-02-26T14:13:34;7.50;99.90
21417;DHT22;10869;52.238;10.716;2024-02-26T14:16:00;7.50;99.90
21417;DHT22;10869;52.238;10.716;2024-02-26T14:18:26;7.50;99.90
21417;DHT22;10869;52.238;10.716;2024-02-26T14:20:53;7.50;99.90
21417;DHT22;10869;52.238;10.716;2024-02-26T14:23:18;7.50;99.90
21417;DHT22;10869;52.238;10.716;2024-02-26T14:25:44;7.50;99.90
21417;DHT22;10869;52.238;10.716;2024-02-26T14:28:11;7.60;99.90
21417;DHT22;10869;52.238;10.716;2024-02-26T14:30:37;7.50;99.90
21417;DHT22;10869;52.238;10.716;2024-02-26T14:33:03;7.50;99.90
21417;DHT22;10869;52.238;10.716;2024-02-26T14:35:29;7.50;99.90
21417;DHT22;10869;52.238;10.716;2024-02-26T14:37:55;7.40;99.90
21417;DHT22;10869;52.238;10.716;2024-02-26T14:40:25;7.40;99.90
21417;DHT22;10869;52.238;10.716;2024-02-26T14:42:51;7.40;99.90
21417;DHT22;10869;52.238;10.716;2024-02-26T14:45:18;7.40;99.90
21417;DHT22;10869;52.238;10.716;2024-02-26T14:47:44;7.30;99.90
21417;DHT22;10869;52.238;10.716;2024-02-26T14:50:10;7.30;99.90
21417;DHT22;10869;52.238;10.716;2024-02-26T14:52:36;7.30;99.90
21417;DHT22;10869;52.238;10.716;2024-02-26T14:55:02;7.40;99.90
21417;DHT22;10869;52.238;10.716;2024-02-26T14:57:28;7.30;99.90
21417;DHT22;10869;52.238;10.716;2024-02-26T14:59:54;7.30;99.90
21417;DHT22;10869;52.238;10.716;2024-02-26T15:05:43;7.30;99.90
21417;DHT22;10869;52.238;10.716;2024-02-26T15:08:08;7.30;99.90
21417;DHT22;10869;52.238;10.716;2024-02-26T15:10:35;7.30;99.90
21417;DHT22;10869;52.238;10.716;2024-02-26T15:13:01;7.30;99.90
21417;DHT22;10869;52.238;10.716;2024-02-26T15:15:27;7.20;99.90
21417;DHT22;10869;52.238;10.716;2024-02-26T15:20:34;7.20;99.90
21417;DHT22;10869;52.238;10.716;2024-02-26T15:23:04;7.10;99.90
21417;DHT22;10869;52.238;10.716;2024-02-26T15:25:30;7.10;99.90
21417;DHT22;10869;52.238;10.716;2024-02-26T15:28:12;7.10;99.90
21417;DHT22;10869;52.238;10.716;2024-02-26T15:30:40;7.10;99.90
21417;DHT22;10869;52.238;10.716;2024-02-26T15:33:07;7.10;99.90
21417;DHT22;10869;52.238;10.716;2024-02-26T15:35:33;7.10;99.90
21417;DHT22;10869;52.238;10.716;2024-02-26T15:37:59;7.10;99.90
21417;DHT22;10869;52.238;10.716;2024-02-26T15:40:25;7.10;99.90
21417;DHT22;10869;52.238;10.716;2024-02-26T15:42:51;7.10;99.90
21417;DHT22;10869;52.238;10.716;2024-02-26T15:45:20;7.10;99.90
21417;DHT22;10869;52.238;10.716;2024-02-26T15:47:47;7.10;99.90
21417;DHT22;10869;52.238;10.716;2024-02-26T15:50:13;7.10;99.90
21417;DHT22;10869;52.238;10.716;2024-02-26T15:52:41;7.10;99.90
21417;DHT22;10869;52.238;10.716;2024-02-26T15:55:11;7.20;99.90
21417;DHT22;10869;52.238;10.716;2024-02-26T15:57:37;7.20;99.90
21417;DHT22;10869;52.238;10.716;2024-02-26T16:00:04;7.30;99.90
21417;DHT22;10869;52.238;10.716;2024-02-26T16:02:36;7.30;99.90
21417;DHT22;10869;52.238;10.716;2024-02-26T16:05:07;7.30;99.90
21417;DHT22;10869;52.238;10.716;2024-02-26T16:07:41;7.30;99.90
21417;DHT22;10869;52.238;10.716;2024-02-26T16:10:08;7.20;99.90
21417;DHT22;10869;52.238;10.716;2024-02-26T16:16:05;7.20;99.90
21417;DHT22;10869;52.238;10.716;2024-02-26T16:18:33;7.10;99.90
21417;DHT22;10869;52.238;10.716;2024-02-26T16:21:00;7.10;99.90
21417;DHT22;10869;52.238;10.716;2024-02-26T16:23:26;7.10;99.90
21417;DHT22;10869;52.238;10.716;2024-02-26T16:25:52;7.10;99.90
21417;DHT22;10869;52.238;10.716;2024-02-26T16:28:18;7.00;99.90
21417;DHT22;10869;52.238;10.716;2024-02-26T16:30:46;7.00;99.90
21417;DHT22;10869;52.238;10.716;2024-02-26T16:33:12;7.00;99.90
21417;DHT22;10869;52.238;10.716;2024-02-26T16:35:38;6.90;99.90
21417;DHT22;10869;52.238;10.716;2024-02-26T16:41:26;6.90;99.90
21417;DHT22;10869;52.238;10.716;2024-02-26T17:51:39;6.30;99.90
21417;DHT22;10869;52.238;10.716;2024-02-26T17:54:05;6.30;99.90
21417;DHT22;10869;52.238;10.716;2024-02-26T17:56:31;6.30;99.90
21417;DHT22;10869;52.238;10.716;2024-02-26T18:02:21;6.30;99.90
21417;DHT22;10869;52.238;10.716;2024-02-26T18:04:47;6.20;99.90
21417;DHT22;10869;52.238;10.716;2024-02-26T18:07:12;6.20;99.90
21417;DHT22;10869;52.238;10.716;2024-02-26T18:09:38;6.20;99.90
21417;DHT22;10869;52.238;10.716;2024-02-26T18:15:27;6.10;99.90
21417;DHT22;10869;52.238;10.716;2024-02-26T18:21:15;6.10;99.90
21417;DHT22;10869;52.238;10.716;2024-02-26T18:23:47;6.10;99.90
21417;DHT22;10869;52.238;10.716;2024-02-26T18:26:13;6.10;99.90
21417;DHT22;10869;52.238;10.716;2024-02-26T18:28:45;6.10;99.90
21417;DHT22;10869;52.238;10.716;2024-02-26T18:31:11;6.00;99.90
21417;DHT22;10869;52.238;10.716;2024-02-26T18:33:43;6.00;99.90
21417;DHT22;10869;52.238;10.716;2024-02-26T18:36:09;6.00;99.90
21417;DHT22;10869;52.238;10.716;2024-02-26T18:38:35;6.00;99.90
21417;DHT22;10869;52.238;10.716;2024-02-26T18:41:02;6.00;99.90
21417;DHT22;10869;52.238;10.716;2024-02-26T18:43:36;6.00;99.90
21417;DHT22;10869;52.238;10.716;2024-02-26T18:46:03;6.00;99.90
21417;DHT22;10869;52.238;10.716;2024-02-26T18:48:29;6.00;99.90
21417;DHT22;10869;52.238;10.716;2024-02-26T18:50:55;6.00;99.90
21417;DHT22;10869;52.238;10.716;2024-02-26T18:56:43;6.00;99.90
21417;DHT22;10869;52.238;10.716;2024-02-26T18:59:10;5.90;99.90
21417;DHT22;10869;52.238;10.716;2024-02-26T19:01:45;5.90;99.90
21417;DHT22;10869;52.238;10.716;2024-02-26T19:04:19;5.90;99.90
21417;DHT22;10869;52.238;10.716;2024-02-26T19:06:47;5.90;99.90
21417;DHT22;10869;52.238;10.716;2024-02-26T19:09:13;5.90;99.90
21417;DHT22;10869;52.238;10.716;2024-02-26T19:11:51;5.90;99.90
21417;DHT22;10869;52.238;10.716;2024-02-26T19:17:52;5.90;99.90
21417;DHT22;10869;52.238;10.716;2024-02-26T19:24:12;5.80;99.90
21417;DHT22;10869;52.238;10.716;2024-02-26T19:30:20;5.70;99.90
21417;DHT22;10869;52.238;10.716;2024-02-26T19:32:50;5.70;99.90
21417;DHT22;10869;52.238;10.716;2024-02-26T19:35:15;5.70;99.90
21417;DHT22;10869;52.238;10.716;2024-02-26T19:45:28;5.60;99.90
21417;DHT22;10869;52.238;10.716;2024-02-26T19:47:54;5.60;99.90
21417;DHT22;10869;52.238;10.716;2024-02-26T19:50:19;5.60;99.90
21417;DHT22;10869;52.238;10.716;2024-02-26T19:53:11;5.60;99.90
21417;DHT22;10869;52.238;10.716;2024-02-26T19:59:00;5.60;99.90
21417;DHT22;10869;52.238;10.716;2024-02-26T20:01:26;5.50;99.90
21417;DHT22;10869;52.238;10.716;2024-02-26T20:03:55;5.50;99.90
21417;DHT22;10869;52.238;10.716;2024-02-26T20:09:43;5.50;99.90
21417;DHT22;10869;52.238;10.716;2024-02-26T20:15:34;5.40;99.90
21417;DHT22;10869;52.238;10.716;2024-02-26T20:18:00;5.40;99.90
21417;DHT22;10869;52.238;10.716;2024-02-26T20:23:47;5.30;99.90
21417;DHT22;10869;52.238;10.716;2024-02-26T20:26:14;5.30;99.90
21417;DHT22;10869;52.238;10.716;2024-02-26T20:32:11;5.20;99.90
21417;DHT22;10869;52.238;10.716;2024-02-26T20:34:37;5.10;99.90
21417;DHT22;10869;52.238;10.716;2024-02-26T20:37:05;5.10;99.90
21417;DHT22;10869;52.238;10.716;2024-02-26T20:42:53;5.00;99.90
21417;DHT22;10869;52.238;10.716;2024-02-26T20:45:20;5.00;99.90
21417;DHT22;10869;52.238;10.716;2024-02-26T20:47:52;4.90;99.90
21417;DHT22;10869;52.238;10.716;2024-02-26T20:50:19;4.80;99.90
21417;DHT22;10869;52.238;10.716;2024-02-26T20:52:45;4.80;99.90
21417;DHT22;10869;52.238;10.716;2024-02-26T20:55:11;4.70;99.90
21417;DHT22;10869;52.238;10.716;2024-02-26T21:01:00;4.70;99.90
21417;DHT22;10869;52.238;10.716;2024-02-26T21:03:29;4.60;99.90
21417;DHT22;10869;52.238;10.716;2024-02-26T21:05:57;4.50;99.90
21417;DHT22;10869;52.238;10.716;2024-02-26T21:08:24;4.50;99.90
21417;DHT22;10869;52.238;10.716;2024-02-26T21:14:15;4.50;99.90
21417;DHT22;10869;52.238;10.716;2024-02-26T21:20:05;4.40;99.90
21417;DHT22;10869;52.238;10.716;2024-02-26T21:22:31;4.40;99.90
21417;DHT22;10869;52.238;10.716;2024-02-26T21:24:57;4.30;99.90
21417;DHT22;10869;52.238;10.716;2024-02-26T21:27:25;4.30;99.90
21417;DHT22;10869;52.238;10.716;2024-02-26T21:29:51;4.30;99.90
21417;DHT22;10869;52.238;10.716;2024-02-26T21:32:17;4.30;99.90
21417;DHT22;10869;52.238;10.716;2024-02-26T21:38:05;4.20;99.90
21417;DHT22;10869;52.238;10.716;2024-02-26T21:40:31;4.20;99.90
21417;DHT22;10869;52.238;10.716;2024-02-26T21:42:57;4.20;99.90
21417;DHT22;10869;52.238;10.716;2024-02-26T21:45:24;4.20;99.90
21417;DHT22;10869;52.238;10.716;2024-02-26T21:47:50;4.10;99.90
21417;DHT22;10869;52.238;10.716;2024-02-26T21:50:21;4.10;99.90
21417;DHT22;10869;52.238;10.716;2024-02-26T21:52:51;4.10;99.90
21417;DHT22;10869;52.238;10.716;2024-02-26T21:55:23;4.10;99.90
21417;DHT22;10869;52.238;10.716;2024-02-26T21:57:49;4.00;99.90
21417;DHT22;10869;52.238;10.716;2024-02-26T22:00:15;4.00;99.90
21417;DHT22;10869;52.238;10.716;2024-02-26T22:02:41;4.00;99.90
21417;DHT22;10869;52.238;10.716;2024-02-26T22:08:29;3.80;99.90
21417;DHT22;10869;52.238;10.716;2024-02-26T22:41:58;3.30;99.90
